sensor_id;sensor_type;location;lat;lon;timestamp;pressure;altitude;pressure_sealevel;temperature;humidity
23261;BME280;11799;47.740;-3.390;2022-10-16T00:01:45;100908.31;;;15.01;84.88
23261;BME280;11799;47.740;-3.390;2022-10-16T00:04:12;100917.13;;;15.02;84.98
23261;BME280;11799;47.740;-3.390;2022-10-16T00:06:38;100920.78;;;15.01;84.90
23261;BME280;11799;47.740;-3.390;2022-10-16T00:09:04;100909.28;;;15.00;85.04
23261;BME280;11799;47.740;-3.390;2022-10-16T00:11:32;100907.47;;;15.01;85.30
23261;BME280;11799;47.740;-3.390;2022-10-16T00:14:01;100909.28;;;15.00;85.24
23261;BME280;11799;47.740;-3.390;2022-10-16T00:16:28;100906.78;;;14.99;85.19
23261;BME280;11799;47.740;-3.390;2022-10-16T00:18:54;100898.81;;;14.99;85.57
23261;BME280;11799;47.740;-3.390;2022-10-16T00:21:22;100907.75;;;14.98;85.55
23261;BME280;11799;47.740;-3.390;2022-10-16T00:23:57;100906.09;;;14.97;85.24
23261;BME280;11799;47.740;-3.390;2022-10-16T00:26:25;100904.56;;;14.94;85.21
23261;BME280;11799;47.740;-3.390;2022-10-16T00:28:51;100907.34;;;14.93;85.51
23261;BME280;11799;47.740;-3.390;2022-10-16T00:31:19;100906.38;;;14.94;85.06
23261;BME280;11799;47.740;-3.390;2022-10-16T00:33:45;100904.00;;;14.91;85.29
23261;BME280;11799;47.740;-3.390;2022-10-16T00:36:14;100918.13;;;14.91;85.29
23261;BME280;11799;47.740;-3.390;2022-10-16T00:38:40;100911.84;;;14.92;85.62
23261;BME280;11799;47.740;-3.390;2022-10-16T00:41:07;100922.91;;;14.88;85.23
23261;BME280;11799;47.740;-3.390;2022-10-16T00:51:37;100936.19;;;14.88;85.27
23261;BME280;11799;47.740;-3.390;2022-10-16T00:54:04;100936.50;;;14.84;85.15
23261;BME280;11799;47.740;-3.390;2022-10-16T00:56:32;100944.59;;;14.83;84.89
23261;BME280;11799;47.740;-3.390;2022-10-16T00:58:59;100940.41;;;14.80;85.03
23261;BME280;11799;47.740;-3.390;2022-10-16T01:01:26;100943.34;;;14.77;85.19
23261;BME280;11799;47.740;-3.390;2022-10-16T01:03:52;100935.81;;;14.73;84.94
23261;BME280;11799;47.740;-3.390;2022-10-16T01:06:23;100947.84;;;14.77;84.92
23261;BME280;11799;47.740;-3.390;2022-10-16T01:11:57;100949.53;;;14.68;84.65
23261;BME280;11799;47.740;-3.390;2022-10-16T01:14:42;100936.53;;;14.65;84.62
23261;BME280;11799;47.740;-3.390;2022-10-16T01:17:15;100943.09;;;14.61;84.34
23261;BME280;11799;47.740;-3.390;2022-10-16T01:19:57;100937.66;;;14.63;84.49
23261;BME280;11799;47.740;-3.390;2022-10-16T01:22:39;100931.78;;;14.59;84.27
23261;BME280;11799;47.740;-3.390;2022-10-16T01:25:14;100935.13;;;14.61;84.72
23261;BME280;11799;47.740;-3.390;2022-10-16T01:27:45;100933.59;;;14.59;84.45
23261;BME280;11799;47.740;-3.390;2022-10-16T01:30:23;100932.47;;;14.61;84.50
23261;BME280;11799;47.740;-3.390;2022-10-16T01:33:32;100922.13;;;14.58;84.68
23261;BME280;11799;47.740;-3.390;2022-10-16T01:36:08;100916.66;;;14.60;84.68
23261;BME280;11799;47.740;-3.390;2022-10-16T01:38:40;100920.44;;;14.57;84.76
23261;BME280;11799;47.740;-3.390;2022-10-16T01:41:12;100925.75;;;14.57;84.86
23261;BME280;11799;47.740;-3.390;2022-10-16T01:43:43;100922.25;;;14.57;84.88
23261;BME280;11799;47.740;-3.390;2022-10-16T01:46:13;100917.78;;;14.57;84.84
23261;BME280;11799;47.740;-3.390;2022-10-16T01:48:40;100926.88;;;14.54;84.92
23261;BME280;11799;47.740;-3.390;2022-10-16T01:51:10;100922.84;;;14.50;84.53
23261;BME280;11799;47.740;-3.390;2022-10-16T01:53:38;100918.09;;;14.44;84.64
23261;BME280;11799;47.740;-3.390;2022-10-16T01:56:08;100927.06;;;14.43;84.23
23261;BME280;11799;47.740;-3.390;2022-10-16T01:58:47;100918.41;;;14.41;84.45
23261;BME280;11799;47.740;-3.390;2022-10-16T02:01:17;100923.13;;;14.38;84.16
23261;BME280;11799;47.740;-3.390;2022-10-16T02:03:46;100920.06;;;14.33;84.02
23261;BME280;11799;47.740;-3.390;2022-10-16T02:06:12;100928.28;;;14.30;84.51
23261;BME280;11799;47.740;-3.390;2022-10-16T02:08:38;100935.00;;;14.24;84.35
23261;BME280;11799;47.740;-3.390;2022-10-16T02:11:06;100932.63;;;14.21;84.40
23261;BME280;11799;47.740;-3.390;2022-10-16T02:16:03;100935.97;;;14.13;84.27
23261;BME280;11799;47.740;-3.390;2022-10-16T02:18:30;100932.75;;;14.10;84.30
23261;BME280;11799;47.740;-3.390;2022-10-16T02:21:00;100940.88;;;14.08;83.86
23261;BME280;11799;47.740;-3.390;2022-10-16T02:23:32;100935.13;;;14.03;84.22
23261;BME280;11799;47.740;-3.390;2022-10-16T02:26:03;100931.34;;;13.96;84.21
23261;BME280;11799;47.740;-3.390;2022-10-16T02:28:39;100936.78;;;13.95;83.63
23261;BME280;11799;47.740;-3.390;2022-10-16T02:31:08;100934.56;;;13.90;84.31
23261;BME280;11799;47.740;-3.390;2022-10-16T02:33:37;100924.66;;;13.82;85.06
23261;BME280;11799;47.740;-3.390;2022-10-16T02:36:04;100924.78;;;13.81;84.84
23261;BME280;11799;47.740;-3.390;2022-10-16T02:38:30;100922.53;;;13.76;84.89
23261;BME280;11799;47.740;-3.390;2022-10-16T02:40:56;100920.88;;;13.75;84.28
23261;BME280;11799;47.740;-3.390;2022-10-16T02:43:22;100922.25;;;13.70;84.66
23261;BME280;11799;47.740;-3.390;2022-10-16T02:45:48;100917.50;;;13.64;85.09
23261;BME280;11799;47.740;-3.390;2022-10-16T02:48:13;100923.38;;;13.67;84.32
23261;BME280;11799;47.740;-3.390;2022-10-16T02:50:39;100919.31;;;13.63;84.51
23261;BME280;11799;47.740;-3.390;2022-10-16T02:53:05;100919.00;;;13.57;84.71
23261;BME280;11799;47.740;-3.390;2022-10-16T02:55:31;100925.56;;;13.52;85.13
23261;BME280;11799;47.740;-3.390;2022-10-16T02:57:56;100930.44;;;13.47;84.92
23261;BME280;11799;47.740;-3.390;2022-10-16T03:00:22;100926.94;;;13.47;84.33
23261;BME280;11799;47.740;-3.390;2022-10-16T03:02:48;100924.28;;;13.47;85.07
23261;BME280;11799;47.740;-3.390;2022-10-16T03:05:14;100921.47;;;13.39;85.55
23261;BME280;11799;47.740;-3.390;2022-10-16T03:07:39;100936.28;;;13.41;85.47
23261;BME280;11799;47.740;-3.390;2022-10-16T03:10:06;100928.97;;;13.34;84.96
23261;BME280;11799;47.740;-3.390;2022-10-16T03:12:32;100933.44;;;13.33;84.77
23261;BME280;11799;47.740;-3.390;2022-10-16T03:14:57;100930.22;;;13.30;84.83
23261;BME280;11799;47.740;-3.390;2022-10-16T03:17:23;100928.72;;;13.27;85.17
23261;BME280;11799;47.740;-3.390;2022-10-16T03:19:49;100934.84;;;13.28;85.24
23261;BME280;11799;47.740;-3.390;2022-10-16T03:22:15;100932.72;;;13.21;86.04
23261;BME280;11799;47.740;-3.390;2022-10-16T03:24:40;100942.38;;;13.23;85.92
23261;BME280;11799;47.740;-3.390;2022-10-16T03:27:08;100938.03;;;13.21;86.12
23261;BME280;11799;47.740;-3.390;2022-10-16T03:29:34;100941.66;;;13.20;86.02
23261;BME280;11799;47.740;-3.390;2022-10-16T03:32:00;100945.41;;;13.18;86.51
23261;BME280;11799;47.740;-3.390;2022-10-16T03:34:25;100947.47;;;13.14;86.46
23261;BME280;11799;47.740;-3.390;2022-10-16T03:36:51;100928.19;;;13.12;86.67
23261;BME280;11799;47.740;-3.390;2022-10-16T03:39:19;100938.66;;;13.14;86.49
23261;BME280;11799;47.740;-3.390;2022-10-16T03:41:44;100943.97;;;13.14;86.40
23261;BME280;11799;47.740;-3.390;2022-10-16T03:44:11;100937.59;;;13.16;86.91
23261;BME280;11799;47.740;-3.390;2022-10-16T03:46:37;100929.63;;;13.16;86.33
23261;BME280;11799;47.740;-3.390;2022-10-16T03:49:03;100926.16;;;13.16;86.98
23261;BME280;11799;47.740;-3.390;2022-10-16T03:51:28;100926.72;;;13.19;86.82
23261;BME280;11799;47.740;-3.390;2022-10-16T03:53:54;100921.41;;;13.19;87.07
23261;BME280;11799;47.740;-3.390;2022-10-16T03:56:20;100922.13;;;13.21;86.99
23261;BME280;11799;47.740;-3.390;2022-10-16T03:58:45;100920.06;;;13.25;87.19
23261;BME280;11799;47.740;-3.390;2022-10-16T04:01:11;100921.84;;;13.25;87.04
23261;BME280;11799;47.740;-3.390;2022-10-16T04:03:36;100922.69;;;13.25;87.13
23261;BME280;11799;47.740;-3.390;2022-10-16T04:06:02;100926.06;;;13.27;86.93
23261;BME280;11799;47.740;-3.390;2022-10-16T04:08:28;100933.84;;;13.29;86.88
23261;BME280;11799;47.740;-3.390;2022-10-16T04:10:53;100929.56;;;13.28;87.22
23261;BME280;11799;47.740;-3.390;2022-10-16T04:13:19;100924.78;;;13.31;87.12
23261;BME280;11799;47.740;-3.390;2022-10-16T04:15:45;100925.50;;;13.33;87.68
23261;BME280;11799;47.740;-3.390;2022-10-16T04:18:11;100918.63;;;13.31;87.31
23261;BME280;11799;47.740;-3.390;2022-10-16T04:20:36;100919.91;;;13.27;87.11
23261;BME280;11799;47.740;-3.390;2022-10-16T04:23:02;100924.25;;;13.28;86.61
23261;BME280;11799;47.740;-3.390;2022-10-16T04:25:28;100931.38;;;13.27;86.91
23261;BME280;11799;47.740;-3.390;2022-10-16T04:27:54;100929.94;;;13.23;86.74
23261;BME280;11799;47.740;-3.390;2022-10-16T04:30:20;100927.28;;;13.23;86.61
23261;BME280;11799;47.740;-3.390;2022-10-16T04:32:50;100929.13;;;13.23;86.86
23261;BME280;11799;47.740;-3.390;2022-10-16T04:35:16;100929.81;;;13.25;87.31
23261;BME280;11799;47.740;-3.390;2022-10-16T04:37:42;100929.13;;;13.23;87.21
23261;BME280;11799;47.740;-3.390;2022-10-16T04:40:08;100923.81;;;13.23;87.59
23261;BME280;11799;47.740;-3.390;2022-10-16T04:42:33;100924.50;;;13.25;87.82
23261;BME280;11799;47.740;-3.390;2022-10-16T04:44:59;100919.06;;;13.26;87.49
23261;BME280;11799;47.740;-3.390;2022-10-16T04:47:24;100911.13;;;13.26;87.28
23261;BME280;11799;47.740;-3.390;2022-10-16T04:49:50;100918.22;;;13.26;87.13
23261;BME280;11799;47.740;-3.390;2022-10-16T04:52:15;100917.41;;;13.25;87.82
23261;BME280;11799;47.740;-3.390;2022-10-16T04:54:41;100921.03;;;13.24;87.65
23261;BME280;11799;47.740;-3.390;2022-10-16T04:57:07;100917.53;;;13.24;87.23
23261;BME280;11799;47.740;-3.390;2022-10-16T04:59:32;100915.84;;;13.23;87.58
23261;BME280;11799;47.740;-3.390;2022-10-16T05:01:58;100912.34;;;13.22;86.96
23261;BME280;11799;47.740;-3.390;2022-10-16T05:04:23;100920.19;;;13.24;86.63
23261;BME280;11799;47.740;-3.390;2022-10-16T05:06:49;100928.97;;;13.24;86.53
23261;BME280;11799;47.740;-3.390;2022-10-16T05:09:14;100912.50;;;13.20;87.12
23261;BME280;11799;47.740;-3.390;2022-10-16T05:11:40;100922.25;;;13.20;87.20
23261;BME280;11799;47.740;-3.390;2022-10-16T05:14:05;100919.13;;;13.15;87.15
23261;BME280;11799;47.740;-3.390;2022-10-16T05:16:31;100924.22;;;13.18;86.81
23261;BME280;11799;47.740;-3.390;2022-10-16T05:18:57;100921.69;;;13.16;86.96
23261;BME280;11799;47.740;-3.390;2022-10-16T05:21:22;100929.63;;;13.16;87.51
23261;BME280;11799;47.740;-3.390;2022-10-16T05:23:48;100923.88;;;13.11;87.08
23261;BME280;11799;47.740;-3.390;2022-10-16T05:26:13;100935.31;;;13.12;86.94
23261;BME280;11799;47.740;-3.390;2022-10-16T05:28:39;100939.19;;;13.08;87.69
23261;BME280;11799;47.740;-3.390;2022-10-16T05:31:09;100940.16;;;13.07;87.38
23261;BME280;11799;47.740;-3.390;2022-10-16T05:33:35;100938.50;;;13.06;86.77
23261;BME280;11799;47.740;-3.390;2022-10-16T05:36:06;100930.78;;;13.03;86.99
23261;BME280;11799;47.740;-3.390;2022-10-16T05:38:36;100929.69;;;13.05;86.79
23261;BME280;11799;47.740;-3.390;2022-10-16T05:41:03;100932.09;;;13.08;87.56
23261;BME280;11799;47.740;-3.390;2022-10-16T05:43:29;100923.28;;;13.08;88.07
23261;BME280;11799;47.740;-3.390;2022-10-16T05:46:06;100930.13;;;13.10;87.28
23261;BME280;11799;47.740;-3.390;2022-10-16T05:48:32;100926.66;;;13.10;87.07
23261;BME280;11799;47.740;-3.390;2022-10-16T05:51:03;100924.56;;;13.13;87.68
23261;BME280;11799;47.740;-3.390;2022-10-16T05:53:32;100929.88;;;13.13;87.40
23261;BME280;11799;47.740;-3.390;2022-10-16T05:55:58;100927.22;;;13.13;87.28
23261;BME280;11799;47.740;-3.390;2022-10-16T05:58:24;100920.72;;;13.17;87.63
23261;BME280;11799;47.740;-3.390;2022-10-16T06:01:02;100928.53;;;13.19;87.96
23261;BME280;11799;47.740;-3.390;2022-10-16T06:03:28;100914.56;;;13.17;87.81
23261;BME280;11799;47.740;-3.390;2022-10-16T06:05:53;100915.28;;;13.19;87.66
23261;BME280;11799;47.740;-3.390;2022-10-16T06:08:20;100916.97;;;13.20;88.04
23261;BME280;11799;47.740;-3.390;2022-10-16T06:10:46;100915.28;;;13.19;87.57
23261;BME280;11799;47.740;-3.390;2022-10-16T06:13:13;100914.16;;;13.21;87.39
23261;BME280;11799;47.740;-3.390;2022-10-16T06:15:40;100908.72;;;13.23;87.17
23261;BME280;11799;47.740;-3.390;2022-10-16T06:18:09;100915.72;;;13.24;87.49
23261;BME280;11799;47.740;-3.390;2022-10-16T06:20:36;100915.59;;;13.26;87.92
23261;BME280;11799;47.740;-3.390;2022-10-16T06:23:02;100921.72;;;13.26;88.36
23261;BME280;11799;47.740;-3.390;2022-10-16T06:25:32;100925.91;;;13.29;87.44
23261;BME280;11799;47.740;-3.390;2022-10-16T06:27:58;100914.31;;;13.30;87.73
23261;BME280;11799;47.740;-3.390;2022-10-16T06:30:23;100914.19;;;13.31;87.68
23261;BME280;11799;47.740;-3.390;2022-10-16T06:32:49;100922.13;;;13.31;87.52
23261;BME280;11799;47.740;-3.390;2022-10-16T06:35:14;100914.88;;;13.33;87.60
23261;BME280;11799;47.740;-3.390;2022-10-16T06:37:40;100911.38;;;13.33;87.65
23261;BME280;11799;47.740;-3.390;2022-10-16T06:40:06;100902.19;;;13.37;87.40
23261;BME280;11799;47.740;-3.390;2022-10-16T06:42:32;100898.97;;;13.33;87.53
23261;BME280;11799;47.740;-3.390;2022-10-16T06:44:58;100901.34;;;13.36;87.30
23261;BME280;11799;47.740;-3.390;2022-10-16T06:47:23;100903.75;;;13.39;87.42
23261;BME280;11799;47.740;-3.390;2022-10-16T06:49:49;100894.81;;;13.40;87.43
23261;BME280;11799;47.740;-3.390;2022-10-16T06:52:15;100898.44;;;13.39;87.38
23261;BME280;11799;47.740;-3.390;2022-10-16T06:54:40;100904.31;;;13.43;87.60
23261;BME280;11799;47.740;-3.390;2022-10-16T06:57:06;100912.97;;;13.45;87.72
23261;BME280;11799;47.740;-3.390;2022-10-16T06:59:31;100918.28;;;13.45;87.97
23261;BME280;11799;47.740;-3.390;2022-10-16T07:01:57;100918.00;;;13.48;87.76
23261;BME280;11799;47.740;-3.390;2022-10-16T07:04:22;100924.00;;;13.50;87.71
23261;BME280;11799;47.740;-3.390;2022-10-16T07:06:48;100932.53;;;13.53;87.77
23261;BME280;11799;47.740;-3.390;2022-10-16T07:09:13;100928.06;;;13.54;87.59
23261;BME280;11799;47.740;-3.390;2022-10-16T07:11:40;100920.69;;;13.58;88.13
23261;BME280;11799;47.740;-3.390;2022-10-16T07:14:15;100911.88;;;13.57;87.69
23261;BME280;11799;47.740;-3.390;2022-10-16T07:16:41;100901.13;;;13.59;87.55
23261;BME280;11799;47.740;-3.390;2022-10-16T07:19:07;100907.28;;;13.59;87.77
23261;BME280;11799;47.740;-3.390;2022-10-16T07:21:34;100906.88;;;13.64;87.91
23261;BME280;11799;47.740;-3.390;2022-10-16T07:24:01;100907.72;;;13.64;87.71
23261;BME280;11799;47.740;-3.390;2022-10-16T07:26:30;100910.94;;;13.68;87.82
23261;BME280;11799;47.740;-3.390;2022-10-16T07:28:56;100913.59;;;13.68;87.89
23261;BME280;11799;47.740;-3.390;2022-10-16T07:31:23;100915.13;;;13.70;88.31
23261;BME280;11799;47.740;-3.390;2022-10-16T07:33:49;100914.16;;;13.71;88.34
23261;BME280;11799;47.740;-3.390;2022-10-16T07:36:17;100915.56;;;13.75;88.47
23261;BME280;11799;47.740;-3.390;2022-10-16T07:38:43;100918.91;;;13.77;88.79
23261;BME280;11799;47.740;-3.390;2022-10-16T07:41:12;100916.81;;;13.81;88.59
23261;BME280;11799;47.740;-3.390;2022-10-16T07:43:38;100914.75;;;13.84;88.79
23261;BME280;11799;47.740;-3.390;2022-10-16T07:46:04;100899.47;;;13.86;88.90
23261;BME280;11799;47.740;-3.390;2022-10-16T07:48:32;100908.84;;;13.91;89.12
23261;BME280;11799;47.740;-3.390;2022-10-16T07:50:59;100921.44;;;13.98;89.19
23261;BME280;11799;47.740;-3.390;2022-10-16T08:19:48;100910.53;;;14.49;88.99
23261;BME280;11799;47.740;-3.390;2022-10-16T08:23:16;100929.25;;;14.67;89.13
23261;BME280;11799;47.740;-3.390;2022-10-16T08:25:42;100920.97;;;14.70;89.03
23261;BME280;11799;47.740;-3.390;2022-10-16T08:28:09;100940.84;;;14.76;88.36
23261;BME280;11799;47.740;-3.390;2022-10-16T08:30:35;100931.75;;;14.78;88.66
23261;BME280;11799;47.740;-3.390;2022-10-16T08:33:01;100935.94;;;14.81;87.74
23261;BME280;11799;47.740;-3.390;2022-10-16T08:35:27;100932.28;;;14.82;87.27
23261;BME280;11799;47.740;-3.390;2022-10-16T08:37:53;100939.97;;;14.85;87.39
23261;BME280;11799;47.740;-3.390;2022-10-16T08:40:22;100931.03;;;14.86;87.25
23261;BME280;11799;47.740;-3.390;2022-10-16T08:45:57;100931.56;;;14.90;86.59
23261;BME280;11799;47.740;-3.390;2022-10-16T08:48:30;100926.41;;;14.88;86.00
23261;BME280;11799;47.740;-3.390;2022-10-16T08:51:01;100919.81;;;14.92;86.23
23261;BME280;11799;47.740;-3.390;2022-10-16T08:53:36;100905.00;;;14.90;86.31
23261;BME280;11799;47.740;-3.390;2022-10-16T08:56:06;100916.31;;;14.92;86.45
23261;BME280;11799;47.740;-3.390;2022-10-16T08:58:31;100892.38;;;14.92;86.28
23261;BME280;11799;47.740;-3.390;2022-10-16T09:01:00;100879.25;;;14.90;86.33
23261;BME280;11799;47.740;-3.390;2022-10-16T09:11:36;100851.00;;;14.79;87.31
23261;BME280;11799;47.740;-3.390;2022-10-16T09:16:46;100892.84;;;14.77;87.95
23261;BME280;11799;47.740;-3.390;2022-10-16T09:19:41;100930.06;;;14.77;87.85
23261;BME280;11799;47.740;-3.390;2022-10-16T09:22:16;100939.03;;;14.76;88.05
23261;BME280;11799;47.740;-3.390;2022-10-16T09:24:43;100941.81;;;14.75;88.02
23261;BME280;11799;47.740;-3.390;2022-10-16T09:27:14;100930.34;;;14.74;88.31
23261;BME280;11799;47.740;-3.390;2022-10-16T09:29:40;100923.50;;;14.72;88.38
23261;BME280;11799;47.740;-3.390;2022-10-16T09:32:12;100920.84;;;14.72;88.19
23261;BME280;11799;47.740;-3.390;2022-10-16T09:34:42;100919.16;;;14.71;88.20
23261;BME280;11799;47.740;-3.390;2022-10-16T09:37:12;100926.44;;;14.69;88.15
23261;BME280;11799;47.740;-3.390;2022-10-16T09:39:54;100915.25;;;14.65;88.12
23261;BME280;11799;47.740;-3.390;2022-10-16T09:42:23;100921.69;;;14.63;88.27
23261;BME280;11799;47.740;-3.390;2022-10-16T09:44:50;100904.91;;;14.62;88.38
23261;BME280;11799;47.740;-3.390;2022-10-16T09:47:20;100899.88;;;14.59;87.84
23261;BME280;11799;47.740;-3.390;2022-10-16T09:49:58;100901.56;;;14.60;88.25
23261;BME280;11799;47.740;-3.390;2022-10-16T09:52:26;100888.56;;;14.57;88.07
23261;BME280;11799;47.740;-3.390;2022-10-16T09:54:55;100895.84;;;14.55;87.95
23261;BME280;11799;47.740;-3.390;2022-10-16T09:57:21;100918.78;;;14.56;87.94
23261;BME280;11799;47.740;-3.390;2022-10-16T10:02:14;100916.13;;;14.56;88.09
23261;BME280;11799;47.740;-3.390;2022-10-16T10:04:52;100908.13;;;14.56;88.20
23261;BME280;11799;47.740;-3.390;2022-10-16T10:07:33;100907.16;;;14.57;88.51
23261;BME280;11799;47.740;-3.390;2022-10-16T10:10:03;100902.69;;;14.58;88.45
23261;BME280;11799;47.740;-3.390;2022-10-16T10:12:31;100902.69;;;14.58;88.42
23261;BME280;11799;47.740;-3.390;2022-10-16T10:15:04;100903.53;;;14.58;88.72
23261;BME280;11799;47.740;-3.390;2022-10-16T10:17:31;100907.72;;;14.61;88.69
23261;BME280;11799;47.740;-3.390;2022-10-16T10:20:01;100905.06;;;14.61;88.27
23261;BME280;11799;47.740;-3.390;2022-10-16T10:22:39;100893.31;;;14.63;88.07
23261;BME280;11799;47.740;-3.390;2022-10-16T10:30:27;100865.44;;;14.67;88.34
23261;BME280;11799;47.740;-3.390;2022-10-16T10:33:17;100869.50;;;14.71;88.45
23261;BME280;11799;47.740;-3.390;2022-10-16T10:36:12;100847.09;;;14.74;88.65
23261;BME280;11799;47.740;-3.390;2022-10-16T10:43:48;100821.31;;;14.84;88.85
23261;BME280;11799;47.740;-3.390;2022-10-16T10:49:37;100825.06;;;14.91;89.51
23261;BME280;11799;47.740;-3.390;2022-10-16T11:00:17;100838.31;;;15.01;89.57
23261;BME280;11799;47.740;-3.390;2022-10-16T11:02:55;100841.81;;;15.01;89.63
23261;BME280;11799;47.740;-3.390;2022-10-16T11:10:58;100826.53;;;15.03;89.33
23261;BME280;11799;47.740;-3.390;2022-10-16T11:13:55;100834.50;;;15.03;89.24
23261;BME280;11799;47.740;-3.390;2022-10-16T11:16:38;100840.66;;;15.04;89.43
23261;BME280;11799;47.740;-3.390;2022-10-16T11:19:39;100848.63;;;15.04;89.75
23261;BME280;11799;47.740;-3.390;2022-10-16T11:25:31;100852.47;;;15.01;89.00
23261;BME280;11799;47.740;-3.390;2022-10-16T11:28:19;100868.41;;;15.01;89.48
23261;BME280;11799;47.740;-3.390;2022-10-16T11:30:53;100857.09;;;14.99;89.61
23261;BME280;11799;47.740;-3.390;2022-10-16T11:33:39;100853.59;;;14.99;89.27
23261;BME280;11799;47.740;-3.390;2022-10-16T11:41:53;100865.28;;;15.06;90.22
23261;BME280;11799;47.740;-3.390;2022-10-16T11:49:52;100857.13;;;15.17;90.68
23261;BME280;11799;47.740;-3.390;2022-10-16T11:52:36;100844.50;;;15.19;90.86
23261;BME280;11799;47.740;-3.390;2022-10-16T11:55:22;100851.06;;;15.25;90.76
23261;BME280;11799;47.740;-3.390;2022-10-16T11:57:57;100857.06;;;15.27;90.73
23261;BME280;11799;47.740;-3.390;2022-10-16T12:00:47;100869.25;;;15.29;90.58
23261;BME280;11799;47.740;-3.390;2022-10-16T12:03:26;100854.94;;;15.30;90.69
23261;BME280;11799;47.740;-3.390;2022-10-16T12:08:53;100858.31;;;15.32;90.61
23261;BME280;11799;47.740;-3.390;2022-10-16T12:13:49;100859.00;;;15.34;90.71
23261;BME280;11799;47.740;-3.390;2022-10-16T12:18:42;100838.41;;;15.36;90.94
23261;BME280;11799;47.740;-3.390;2022-10-16T12:21:10;100817.94;;;15.37;91.03
23261;BME280;11799;47.740;-3.390;2022-10-16T12:23:47;100818.63;;;15.39;90.99
23261;BME280;11799;47.740;-3.390;2022-10-16T12:26:14;100808.00;;;15.39;91.56
23261;BME280;11799;47.740;-3.390;2022-10-16T12:28:39;100814.53;;;15.44;91.48
23261;BME280;11799;47.740;-3.390;2022-10-16T12:31:07;100813.25;;;15.48;91.90
23261;BME280;11799;47.740;-3.390;2022-10-16T12:33:50;100810.28;;;15.51;91.61
23261;BME280;11799;47.740;-3.390;2022-10-16T12:36:29;100814.47;;;15.54;91.55
23261;BME280;11799;47.740;-3.390;2022-10-16T12:38:56;100808.88;;;15.57;91.80
23261;BME280;11799;47.740;-3.390;2022-10-16T12:41:30;100808.53;;;15.60;92.03
23261;BME280;11799;47.740;-3.390;2022-10-16T12:43:57;100801.72;;;15.58;91.93
23261;BME280;11799;47.740;-3.390;2022-10-16T12:46:43;100797.75;;;15.62;91.71
23261;BME280;11799;47.740;-3.390;2022-10-16T12:51:37;100788.63;;;15.64;91.81
23261;BME280;11799;47.740;-3.390;2022-10-16T12:54:37;100787.78;;;15.64;91.78
23261;BME280;11799;47.740;-3.390;2022-10-16T13:21:04;100810.22;;;15.61;90.71
23261;BME280;11799;47.740;-3.390;2022-10-16T13:26:27;100796.44;;;15.66;91.15
23261;BME280;11799;47.740;-3.390;2022-10-16T13:28:59;100789.84;;;15.70;91.26
23261;BME280;11799;47.740;-3.390;2022-10-16T13:31:25;100791.19;;;15.74;90.95
23261;BME280;11799;47.740;-3.390;2022-10-16T13:33:53;100775.06;;;15.75;90.95
23261;BME280;11799;47.740;-3.390;2022-10-16T13:36:34;100768.59;;;15.78;91.28
23261;BME280;11799;47.740;-3.390;2022-10-16T13:39:10;100766.31;;;15.83;91.32
23261;BME280;11799;47.740;-3.390;2022-10-16T13:41:37;100768.00;;;15.84;91.36
23261;BME280;11799;47.740;-3.390;2022-10-16T13:44:03;100767.69;;;15.87;91.23
23261;BME280;11799;47.740;-3.390;2022-10-16T13:46:29;100767.53;;;15.89;91.22
23261;BME280;11799;47.740;-3.390;2022-10-16T13:49:10;100764.03;;;15.88;90.99
23261;BME280;11799;47.740;-3.390;2022-10-16T13:51:36;100767.69;;;15.87;91.26
23261;BME280;11799;47.740;-3.390;2022-10-16T13:54:02;100765.19;;;15.85;91.25
23261;BME280;11799;47.740;-3.390;2022-10-16T13:56:30;100759.31;;;15.82;90.58
23261;BME280;11799;47.740;-3.390;2022-10-16T13:59:04;100760.31;;;15.81;90.99
23261;BME280;11799;47.740;-3.390;2022-10-16T14:04:04;100771.13;;;15.79;90.78
23261;BME280;11799;47.740;-3.390;2022-10-16T14:06:31;100761.59;;;15.77;90.83
23261;BME280;11799;47.740;-3.390;2022-10-16T14:11:59;100759.78;;;15.77;90.79
23261;BME280;11799;47.740;-3.390;2022-10-16T14:14:30;100765.09;;;15.77;91.16
23261;BME280;11799;47.740;-3.390;2022-10-16T14:16:59;100757.97;;;15.78;90.77
23261;BME280;11799;47.740;-3.390;2022-10-16T14:19:27;100763.97;;;15.80;91.23
23261;BME280;11799;47.740;-3.390;2022-10-16T14:21:53;100755.13;;;15.79;91.20
23261;BME280;11799;47.740;-3.390;2022-10-16T14:24:32;100752.31;;;15.81;91.08
23261;BME280;11799;47.740;-3.390;2022-10-16T14:26:59;100749.81;;;15.79;90.98
23261;BME280;11799;47.740;-3.390;2022-10-16T14:29:27;100754.31;;;15.79;90.73
23261;BME280;11799;47.740;-3.390;2022-10-16T14:32:05;100749.13;;;15.77;90.66
23261;BME280;11799;47.740;-3.390;2022-10-16T14:34:38;100756.81;;;15.80;90.94
23261;BME280;11799;47.740;-3.390;2022-10-16T14:37:09;100748.28;;;15.77;90.86
23261;BME280;11799;47.740;-3.390;2022-10-16T14:39:39;100752.16;;;15.82;91.11
23261;BME280;11799;47.740;-3.390;2022-10-16T14:42:14;100741.50;;;15.82;91.25
23261;BME280;11799;47.740;-3.390;2022-10-16T14:44:41;100745.84;;;15.83;91.31
23261;BME280;11799;47.740;-3.390;2022-10-16T14:47:13;100757.34;;;15.84;91.03
23261;BME280;11799;47.740;-3.390;2022-10-16T14:49:41;100753.69;;;15.85;91.33
23261;BME280;11799;47.740;-3.390;2022-10-16T14:52:11;100753.69;;;15.85;91.18
23261;BME280;11799;47.740;-3.390;2022-10-16T14:54:37;100759.16;;;15.83;91.07
23261;BME280;11799;47.740;-3.390;2022-10-16T14:57:03;100749.34;;;15.84;91.05
23261;BME280;11799;47.740;-3.390;2022-10-16T14:59:33;100745.53;;;15.87;91.43
23261;BME280;11799;47.740;-3.390;2022-10-16T15:02:02;100741.88;;;15.88;91.68
23261;BME280;11799;47.740;-3.390;2022-10-16T15:04:39;100742.41;;;15.91;91.73
23261;BME280;11799;47.740;-3.390;2022-10-16T15:07:06;100747.59;;;15.93;91.20
23261;BME280;11799;47.740;-3.390;2022-10-16T15:09:32;100745.75;;;15.93;91.21
23261;BME280;11799;47.740;-3.390;2022-10-16T15:11:57;100750.09;;;15.94;91.42
23261;BME280;11799;47.740;-3.390;2022-10-16T15:14:23;100751.78;;;15.95;91.37